createdAt,value
2023-03-01T00:00:47.567Z,101867.55
2023-03-01T00:03:08.234Z,101862.93
2023-03-01T00:05:20.866Z,101867.23
2023-03-01T00:07:33.362Z,101872.68
2023-03-01T00:09:46.852Z,101876.92
2023-03-01T00:11:59.457Z,101874.05
2023-03-01T00:14:12.294Z,101875.23
2023-03-01T00:16:29.096Z,101876.95
2023-03-01T00:18:42.045Z,101880.16
2023-03-01T00:20:56.055Z,101878.25
2023-03-01T00:23:08.581Z,101874.80
2023-03-01T00:25:21.106Z,101874.66
2023-03-01T00:27:33.658Z,101871.16
2023-03-01T00:29:46.423Z,101869.62
2023-03-01T00:31:59.037Z,101868.91
2023-03-01T00:34:11.671Z,101867.70
2023-03-01T00:36:30.114Z,101863.89
2023-03-01T00:38:45.203Z,101860.11
2023-03-01T00:41:05.301Z,101857.78
2023-03-01T00:43:17.828Z,101859.39
2023-03-01T00:45:32.134Z,101856.38
2023-03-01T00:47:44.996Z,101849.53
2023-03-01T00:49:57.551Z,101848.18
2023-03-01T00:52:10.061Z,101843.45
2023-03-01T00:54:22.625Z,101843.33
2023-03-01T00:56:35.508Z,101841.84
2023-03-01T00:58:48.449Z,101839.91
2023-03-01T01:01:01.241Z,101833.91
2023-03-01T01:03:13.816Z,101831.30
2023-03-01T01:05:26.390Z,101828.58
2023-03-01T01:07:39.059Z,101828.21
2023-03-01T01:09:51.758Z,101831.72
2023-03-01T01:12:04.752Z,101838.09
2023-03-01T01:14:18.347Z,101836.33
2023-03-01T01:16:31.265Z,101835.88
2023-03-01T01:18:44.558Z,101836.56
2023-03-01T01:20:57.202Z,101831.51
2023-03-01T01:23:09.788Z,101828.77
2023-03-01T01:25:22.512Z,101826.56
2023-03-01T01:27:35.194Z,101822.04
2023-03-01T01:29:47.790Z,101822.25
2023-03-01T01:32:00.396Z,101821.77
2023-03-01T01:34:19.732Z,101817.17
2023-03-01T01:36:33.380Z,101813.02
2023-03-01T01:38:46.095Z,101812.00
2023-03-01T01:41:00.115Z,101811.11
2023-03-01T01:43:26.908Z,101808.21
2023-03-01T01:45:39.775Z,101806.92
2023-03-01T01:47:55.773Z,101807.05
2023-03-01T01:50:17.145Z,101806.35
2023-03-01T01:52:36.776Z,101809.13
2023-03-01T01:54:57.914Z,101797.95
2023-03-01T01:57:15.760Z,101790.95
2023-03-01T01:59:29.757Z,101790.96
2023-03-01T02:01:42.445Z,101789.01
2023-03-01T02:03:55.096Z,101790.36
2023-03-01T02:06:16.666Z,101791.09
2023-03-01T02:08:31.831Z,101785.83
2023-03-01T02:10:46.136Z,101785.62
2023-03-01T02:12:58.916Z,101790.65
2023-03-01T02:15:11.501Z,101790.45
2023-03-01T02:17:24.450Z,101794.11
2023-03-01T02:19:48.859Z,101794.94
2023-03-01T02:22:19.182Z,101797.04
2023-03-01T02:24:55.425Z,101795.73
2023-03-01T02:27:08.086Z,101790.11
2023-03-01T02:29:21.595Z,101789.35
2023-03-01T02:31:43.245Z,101792.20
2023-03-01T02:33:56.840Z,101793.02
2023-03-01T02:36:14.952Z,101793.23
2023-03-01T02:38:28.743Z,101789.04
2023-03-01T02:40:41.713Z,101792.33
2023-03-01T02:42:58.282Z,101794.86
2023-03-01T02:45:11.685Z,101796.88
2023-03-01T02:47:24.297Z,101798.91
2023-03-01T02:49:38.257Z,101801.42
2023-03-01T02:52:36.393Z,101801.54
2023-03-01T02:55:02.067Z,101797.42
2023-03-01T02:57:15.769Z,101800.84
2023-03-01T02:59:32.607Z,101802.91
2023-03-01T03:01:46.533Z,101803.23
2023-03-01T03:04:01.423Z,101808.27
2023-03-01T03:06:14.487Z,101805.20
2023-03-01T03:08:27.064Z,101803.03
2023-03-01T03:10:41.752Z,101805.14
2023-03-01T03:13:03.464Z,101799.58
2023-03-01T03:15:16.173Z,101793.53
2023-03-01T03:17:28.762Z,101796.58
2023-03-01T03:19:41.270Z,101797.27
2023-03-01T03:21:53.860Z,101796.77
2023-03-01T03:24:06.688Z,101802.33
2023-03-01T03:26:19.268Z,101802.06
2023-03-01T03:28:33.287Z,101800.78
2023-03-01T03:30:46.130Z,101797.45
2023-03-01T03:33:00.298Z,101794.27
2023-03-01T03:35:12.830Z,101791.10
2023-03-01T03:37:43.791Z,101786.05
2023-03-01T03:39:56.352Z,101782.77
2023-03-01T03:42:08.869Z,101781.20
2023-03-01T03:44:21.886Z,101780.49
2023-03-01T03:46:34.805Z,101780.37
2023-03-01T03:48:47.678Z,101780.59
2023-03-01T03:51:00.541Z,101777.63
2023-03-01T03:53:13.387Z,101774.61
2023-03-01T03:55:30.952Z,101764.56
2023-03-01T03:57:43.569Z,101758.98
2023-03-01T03:59:56.171Z,101763.10
2023-03-01T04:02:09.801Z,101759.44
2023-03-01T04:04:22.373Z,101758.33
2023-03-01T04:06:35.014Z,101756.83
2023-03-01T04:08:47.607Z,101754.56
2023-03-01T04:11:25.319Z,101753.77
2023-03-01T04:13:37.966Z,101757.45
2023-03-01T04:15:55.330Z,101758.69
2023-03-01T04:18:15.678Z,101764.45
2023-03-01T04:20:30.775Z,101760.16
2023-03-01T04:22:43.332Z,101757.61
2023-03-01T04:24:56.223Z,101756.63
2023-03-01T04:27:08.732Z,101753.38
2023-03-01T04:29:21.240Z,101755.50
2023-03-01T04:31:35.075Z,101757.06
2023-03-01T04:33:49.958Z,101755.14
2023-03-01T04:36:06.352Z,101757.63
2023-03-01T04:38:20.230Z,101755.02
2023-03-01T04:40:33.472Z,101752.96
2023-03-01T04:42:45.992Z,101751.02
2023-03-01T04:44:58.839Z,101748.95
2023-03-01T04:47:12.534Z,101749.05
2023-03-01T04:49:25.140Z,101750.69
2023-03-01T04:51:37.705Z,101754.49
2023-03-01T04:53:50.486Z,101761.95
2023-03-01T04:56:03.344Z,101765.04
2023-03-01T04:58:15.870Z,101758.77
2023-03-01T05:00:28.439Z,101758.30
2023-03-01T05:02:41.036Z,101758.88
2023-03-01T05:04:53.673Z,101759.62
2023-03-01T05:07:06.300Z,101763.09
2023-03-01T05:09:18.880Z,101760.48
2023-03-01T05:11:34.761Z,101758.20
2023-03-01T05:13:47.349Z,101759.73
2023-03-01T05:16:01.734Z,101759.13
2023-03-01T05:18:14.491Z,101755.46
2023-03-01T05:20:29.656Z,101755.55
2023-03-01T05:22:42.306Z,101757.45
2023-03-01T05:24:55.041Z,101762.06
2023-03-01T05:27:07.654Z,101762.70
2023-03-01T05:29:25.820Z,101758.86
2023-03-01T05:31:39.076Z,101758.21
2023-03-01T05:33:51.574Z,101760.23
2023-03-01T05:36:04.655Z,101755.74
2023-03-01T05:38:17.485Z,101754.21
2023-03-01T05:40:30.206Z,101754.61
2023-03-01T05:42:51.032Z,101760.08
2023-03-01T05:45:03.807Z,101759.61
2023-03-01T05:47:16.446Z,101762.73
2023-03-01T05:49:29.160Z,101759.80
2023-03-01T05:51:42.570Z,101765.96
2023-03-01T05:53:55.266Z,101767.39
2023-03-01T05:56:08.114Z,101765.35
2023-03-01T05:58:21.191Z,101766.12
2023-03-01T06:00:34.594Z,101765.70
2023-03-01T06:02:47.197Z,101763.17
2023-03-01T06:04:59.855Z,101769.23
2023-03-01T06:07:12.671Z,101770.97
2023-03-01T06:09:26.965Z,101772.79
2023-03-01T06:11:39.655Z,101777.35
2023-03-01T06:13:52.326Z,101775.26
2023-03-01T06:16:07.421Z,101777.59
2023-03-01T06:18:20.005Z,101773.48
2023-03-01T06:20:32.550Z,101772.80
2023-03-01T06:22:45.881Z,101771.33
2023-03-01T06:24:58.381Z,101763.48
2023-03-01T06:27:10.918Z,101760.75
2023-03-01T06:29:23.610Z,101761.27
2023-03-01T06:31:36.167Z,101754.99
2023-03-01T06:33:48.782Z,101751.82
2023-03-01T06:36:01.357Z,101751.30
2023-03-01T06:38:15.868Z,101751.67
2023-03-01T06:40:29.052Z,101751.63
2023-03-01T06:42:49.449Z,101749.06
2023-03-01T06:45:02.669Z,101738.44
2023-03-01T06:47:15.254Z,101734.65
2023-03-01T06:49:27.935Z,101730.61
2023-03-01T06:51:40.433Z,101726.15
2023-03-01T06:53:52.935Z,101730.47
2023-03-01T06:56:05.588Z,101732.48
2023-03-01T06:58:18.175Z,101729.71
2023-03-01T07:00:31.351Z,101733.14
2023-03-01T07:02:43.952Z,101735.90
2023-03-01T07:04:56.497Z,101738.98
2023-03-01T07:07:09.595Z,101740.91
2023-03-01T07:09:23.785Z,101736.14
2023-03-01T07:11:36.315Z,101740.45
2023-03-01T07:13:48.864Z,101742.48
2023-03-01T07:16:01.481Z,101747.56
2023-03-01T07:18:14.012Z,101745.35
2023-03-01T07:20:26.856Z,101744.65
2023-03-01T07:22:42.420Z,101737.00
2023-03-01T07:24:54.959Z,101740.94
2023-03-01T07:27:07.465Z,101736.30
2023-03-01T07:29:20.241Z,101737.27
2023-03-01T07:31:33.260Z,101732.36
2023-03-01T07:33:46.064Z,101727.70
2023-03-01T07:36:00.116Z,101725.27
2023-03-01T07:38:12.796Z,101720.82
2023-03-01T07:40:25.290Z,101718.61
2023-03-01T07:42:38.147Z,101719.64
2023-03-01T07:44:50.754Z,101713.21
2023-03-01T07:47:04.788Z,101714.67
2023-03-01T07:49:17.391Z,101717.36
2023-03-01T07:51:29.898Z,101719.66
2023-03-01T07:53:42.444Z,101722.95
2023-03-01T07:56:06.753Z,101721.86
2023-03-01T07:58:19.267Z,101718.91
2023-03-01T08:00:32.486Z,101715.60
2023-03-01T08:02:45.043Z,101710.56
2023-03-01T08:04:57.688Z,101704.39
2023-03-01T08:07:10.261Z,101699.00
2023-03-01T08:09:23.332Z,101696.52
2023-03-01T08:11:36.149Z,101692.00
2023-03-01T08:13:51.538Z,101691.31
2023-03-01T08:16:15.992Z,101689.54
2023-03-01T08:18:28.625Z,101694.64
2023-03-01T08:20:41.254Z,101694.30
2023-03-01T08:22:53.795Z,101694.00
2023-03-01T08:25:07.584Z,101695.71
2023-03-01T08:27:20.107Z,101695.48
2023-03-01T08:29:33.851Z,101701.34
2023-03-01T08:31:46.537Z,101697.38
2023-03-01T08:34:01.946Z,101698.92
2023-03-01T08:36:14.494Z,101695.76
2023-03-01T08:38:26.992Z,101693.27
2023-03-01T08:40:39.483Z,101690.11
2023-03-01T08:42:52.085Z,101686.92
2023-03-01T08:45:05.239Z,101693.55
2023-03-01T08:47:17.804Z,101699.11
2023-03-01T08:49:30.353Z,101701.23
2023-03-01T08:51:44.420Z,101698.04
2023-03-01T08:53:57.088Z,101701.88
2023-03-01T08:56:10.578Z,101704.65
2023-03-01T08:58:23.147Z,101700.39
2023-03-01T09:00:35.744Z,101701.45
2023-03-01T09:02:48.325Z,101701.30
2023-03-01T09:05:00.976Z,101699.77
2023-03-01T09:07:13.657Z,101696.35
2023-03-01T09:09:26.370Z,101688.63
2023-03-01T09:11:38.948Z,101686.90
2023-03-01T09:13:51.883Z,101681.73
2023-03-01T09:16:06.835Z,101683.56
2023-03-01T09:18:19.490Z,101687.85
2023-03-01T09:20:32.998Z,101690.10
2023-03-01T09:22:45.617Z,101689.58
2023-03-01T09:25:00.130Z,101682.98
2023-03-01T09:27:13.863Z,101678.23
2023-03-01T09:29:26.952Z,101677.03
2023-03-01T09:31:39.750Z,101677.67
2023-03-01T09:33:54.809Z,101675.55
2023-03-01T09:36:11.867Z,101682.27
2023-03-01T09:38:25.944Z,101673.73
2023-03-01T09:40:47.987Z,101671.04
2023-03-01T09:43:08.576Z,101669.84
2023-03-01T09:45:34.727Z,101668.46
2023-03-01T09:47:47.457Z,101664.42
2023-03-01T09:50:14.227Z,101662.00
2023-03-01T09:52:37.239Z,101658.70
2023-03-01T09:54:56.335Z,101652.10
2023-03-01T09:57:16.529Z,101654.06
2023-03-01T09:59:38.948Z,101654.98
2023-03-01T10:02:10.312Z,101656.19
2023-03-01T10:04:40.822Z,101659.70
2023-03-01T10:07:22.600Z,101660.36
2023-03-01T10:09:38.278Z,101658.87
2023-03-01T10:11:54.990Z,101658.77
2023-03-01T10:14:25.717Z,101656.98
2023-03-01T10:17:34.370Z,101650.45
2023-03-01T10:19:48.008Z,101651.77
2023-03-01T10:22:22.934Z,101649.45
2023-03-01T10:24:37.377Z,101649.23
2023-03-01T10:26:57.977Z,101644.74
2023-03-01T10:29:15.511Z,101638.77
2023-03-01T10:31:38.276Z,101635.10
2023-03-01T10:33:55.771Z,101630.87
2023-03-01T10:36:08.587Z,101627.30
2023-03-01T10:38:22.362Z,101623.61
2023-03-01T10:40:36.535Z,101624.39
2023-03-01T10:42:50.456Z,101619.92
2023-03-01T10:45:31.124Z,101617.38
2023-03-01T10:47:43.729Z,101612.86
2023-03-01T10:50:02.512Z,101608.67
2023-03-01T10:52:25.543Z,101613.95
2023-03-01T10:54:38.574Z,101610.30
2023-03-01T10:56:54.687Z,101606.84
2023-03-01T10:59:22.617Z,101607.09
2023-03-01T11:01:36.949Z,101608.80
2023-03-01T11:04:09.473Z,101605.45
2023-03-01T11:06:23.098Z,101602.72
2023-03-01T11:08:44.618Z,101598.84
2023-03-01T11:11:26.136Z,101594.48
2023-03-01T11:13:48.923Z,101590.55
2023-03-01T11:16:05.007Z,101590.79
2023-03-01T11:18:31.079Z,101585.20
2023-03-01T11:20:53.756Z,101587.27
2023-03-01T11:23:15.078Z,101588.98
2023-03-01T11:25:33.878Z,101589.80
2023-03-01T11:27:47.748Z,101590.02
2023-03-01T11:30:05.928Z,101588.03
2023-03-01T11:32:22.072Z,101584.55
2023-03-01T11:34:44.626Z,101584.77
2023-03-01T11:37:02.589Z,101573.66
2023-03-01T11:39:39.378Z,101579.73
2023-03-01T11:42:18.851Z,101576.83
2023-03-01T11:44:37.179Z,101576.74
2023-03-01T11:47:26.756Z,101568.63
2023-03-01T11:49:57.740Z,101568.30
2023-03-01T11:52:31.900Z,101570.50
2023-03-01T11:55:17.476Z,101573.09
2023-03-01T11:57:49.693Z,101566.84
2023-03-01T12:00:17.373Z,101562.06
2023-03-01T12:02:38.784Z,101561.73
2023-03-01T12:05:19.754Z,101559.87
2023-03-01T12:07:45.488Z,101561.20
2023-03-01T12:10:22.936Z,101562.07
2023-03-01T12:12:54.149Z,101559.15
2023-03-01T12:15:20.157Z,101556.40
2023-03-01T12:17:58.725Z,101551.73
2023-03-01T12:20:23.538Z,101544.48
2023-03-01T12:22:45.804Z,101534.08
2023-03-01T12:25:21.234Z,101534.63
2023-03-01T12:28:18.692Z,101533.89
2023-03-01T12:31:08.065Z,101528.41
2023-03-01T12:33:40.063Z,101523.48
2023-03-01T12:36:16.499Z,101523.33
2023-03-01T12:38:53.954Z,101522.33
2023-03-01T12:41:22.957Z,101522.86
2023-03-01T12:43:59.995Z,101517.03
2023-03-01T12:46:30.323Z,101511.55
2023-03-01T12:49:04.329Z,101509.34
2023-03-01T12:51:20.638Z,101509.05
2023-03-01T12:53:37.783Z,101501.65
2023-03-01T12:55:52.850Z,101499.44
2023-03-01T12:58:26.299Z,101496.25
2023-03-01T13:00:52.391Z,101494.14
2023-03-01T13:03:24.098Z,101490.96
2023-03-01T13:06:08.244Z,101484.36
2023-03-01T13:08:29.464Z,101483.79
2023-03-01T13:10:52.963Z,101485.51
2023-03-01T13:13:11.527Z,101480.55
2023-03-01T13:15:28.401Z,101483.52
2023-03-01T13:17:45.502Z,101480.91
2023-03-01T13:19:59.874Z,101482.59
2023-03-01T13:22:32.554Z,101480.23
2023-03-01T13:24:45.079Z,101478.80
2023-03-01T13:27:06.760Z,101483.27
2023-03-01T13:29:27.893Z,101482.39
2023-03-01T13:31:40.460Z,101481.73
2023-03-01T13:33:57.198Z,101478.40
2023-03-01T13:36:11.958Z,101477.14
2023-03-01T13:38:58.178Z,101474.75
2023-03-01T13:41:10.900Z,101473.30
2023-03-01T13:43:36.324Z,101478.73
2023-03-01T13:45:49.765Z,101479.37
2023-03-01T13:48:16.103Z,101474.18
2023-03-01T13:50:33.709Z,101468.10
2023-03-01T13:52:51.537Z,101463.61
2023-03-01T13:55:08.067Z,101457.40
2023-03-01T13:57:25.802Z,101457.45
2023-03-01T13:59:48.412Z,101456.27
2023-03-01T14:02:01.834Z,101454.07
2023-03-01T14:04:32.273Z,101448.18
2023-03-01T14:06:44.893Z,101446.79
2023-03-01T14:09:21.507Z,101441.54
2023-03-01T14:11:40.230Z,101441.45
2023-03-01T14:14:19.045Z,101438.30
2023-03-01T14:16:50.554Z,101431.11
2023-03-01T14:19:31.158Z,101433.27
2023-03-01T14:21:46.059Z,101434.39
2023-03-01T14:23:59.782Z,101429.00
2023-03-01T14:26:13.128Z,101426.27
2023-03-01T14:28:38.301Z,101418.90
2023-03-01T14:30:53.379Z,101421.41
2023-03-01T14:33:18.618Z,101417.25
2023-03-01T14:35:34.903Z,101417.52
2023-03-01T14:37:47.576Z,101416.74
2023-03-01T14:40:02.524Z,101414.18
2023-03-01T14:42:16.342Z,101410.61
2023-03-01T14:44:30.818Z,101405.65
2023-03-01T14:46:46.002Z,101402.38
2023-03-01T14:49:11.702Z,101397.40
2023-03-01T14:51:24.950Z,101393.67
2023-03-01T14:53:49.289Z,101392.86
2023-03-01T14:56:03.634Z,101396.98
2023-03-01T14:58:20.089Z,101392.80
2023-03-01T15:00:35.058Z,101394.58
2023-03-01T15:02:53.825Z,101395.60
2023-03-01T15:05:08.906Z,101398.72
2023-03-01T15:07:49.783Z,101399.11
2023-03-01T15:10:04.998Z,101401.81
2023-03-01T15:12:36.761Z,101404.26
2023-03-01T15:15:02.524Z,101402.84
2023-03-01T15:17:29.077Z,101401.70
2023-03-01T15:19:41.626Z,101400.95
2023-03-01T15:21:54.826Z,101402.82
2023-03-01T15:24:26.720Z,101402.74
2023-03-01T15:26:43.432Z,101402.80
2023-03-01T15:28:59.319Z,101402.90
2023-03-01T15:31:23.244Z,101402.42
2023-03-01T15:33:37.903Z,101402.26
2023-03-01T15:35:54.711Z,101399.00
2023-03-01T15:38:26.243Z,101395.67
2023-03-01T15:40:50.809Z,101392.20
2023-03-01T15:43:05.931Z,101392.61
2023-03-01T15:45:21.445Z,101392.26
2023-03-01T15:47:36.409Z,101396.44
2023-03-01T15:49:55.288Z,101393.05
2023-03-01T15:52:22.725Z,101395.41
2023-03-01T15:54:35.274Z,101399.45
2023-03-01T15:56:48.153Z,101403.61
2023-03-01T15:59:03.140Z,101407.26
2023-03-01T16:01:20.434Z,101408.19
2023-03-01T16:03:33.054Z,101411.52
2023-03-01T16:05:45.597Z,101411.98
2023-03-01T16:07:58.564Z,101416.58
2023-03-01T16:10:11.244Z,101422.14
2023-03-01T16:12:25.134Z,101423.41
2023-03-01T16:14:38.054Z,101424.51
2023-03-01T16:16:50.820Z,101424.26
2023-03-01T16:19:03.389Z,101425.40
2023-03-01T16:21:24.694Z,101423.05
2023-03-01T16:23:37.604Z,101426.57
2023-03-01T16:25:50.243Z,101425.60
2023-03-01T16:28:05.988Z,101425.47
2023-03-01T16:30:21.393Z,101425.50
2023-03-01T16:32:33.983Z,101425.87
2023-03-01T16:34:50.071Z,101426.73
2023-03-01T16:37:02.617Z,101426.45
2023-03-01T16:39:15.109Z,101431.30
2023-03-01T16:41:28.182Z,101429.95
2023-03-01T16:43:42.023Z,101434.98
2023-03-01T16:45:54.682Z,101435.50
2023-03-01T16:48:07.645Z,101436.73
2023-03-01T16:50:20.565Z,101439.16
2023-03-01T16:52:34.763Z,101444.31
2023-03-01T16:54:48.018Z,101443.98
2023-03-01T16:57:00.570Z,101450.84
2023-03-01T16:59:13.180Z,101451.68
2023-03-01T17:01:26.891Z,101452.17
2023-03-01T17:03:41.055Z,101454.20
2023-03-01T17:05:53.698Z,101457.10
2023-03-01T17:08:06.361Z,101455.20
2023-03-01T17:10:18.959Z,101453.45
2023-03-01T17:12:32.912Z,101453.23
2023-03-01T17:14:45.448Z,101455.61
2023-03-01T17:17:00.642Z,101453.86
2023-03-01T17:19:18.409Z,101455.19
2023-03-01T17:21:31.775Z,101458.91
2023-03-01T17:23:46.218Z,101461.10
2023-03-01T17:25:59.468Z,101461.90
2023-03-01T17:28:13.130Z,101462.21
2023-03-01T17:30:25.820Z,101463.70
2023-03-01T17:32:38.508Z,101464.30
2023-03-01T17:34:51.157Z,101464.89
2023-03-01T17:37:03.994Z,101463.60
2023-03-01T17:39:17.234Z,101465.92
2023-03-01T17:41:30.144Z,101464.63
2023-03-01T17:43:43.158Z,101461.46
2023-03-01T17:45:56.975Z,101463.91
2023-03-01T17:48:10.583Z,101463.30
2023-03-01T17:50:23.153Z,101460.66
2023-03-01T17:52:35.718Z,101460.09
2023-03-01T17:54:48.409Z,101458.64
2023-03-01T17:57:01.081Z,101459.45
2023-03-01T17:59:13.653Z,101462.49
2023-03-01T18:01:26.441Z,101457.45
2023-03-01T18:03:40.325Z,101459.77
2023-03-01T18:05:52.937Z,101458.30
2023-03-01T18:08:05.729Z,101458.89
2023-03-01T18:10:20.633Z,101458.45
2023-03-01T18:12:33.224Z,101458.69
2023-03-01T18:14:45.718Z,101464.59
2023-03-01T18:16:58.353Z,101465.17
2023-03-01T18:19:12.210Z,101463.91
2023-03-01T18:21:25.168Z,101462.27
2023-03-01T18:23:38.016Z,101456.20
2023-03-01T18:25:51.612Z,101453.77
2023-03-01T18:28:04.458Z,101452.36
2023-03-01T18:30:17.211Z,101454.16
2023-03-01T18:32:29.901Z,101453.75
2023-03-01T18:34:42.816Z,101454.03
2023-03-01T18:37:08.760Z,101454.45
2023-03-01T18:39:23.230Z,101454.66
2023-03-01T18:41:36.336Z,101457.93
2023-03-01T18:43:48.866Z,101464.11
2023-03-01T18:46:01.628Z,101461.47
2023-03-01T18:48:15.376Z,101462.95
2023-03-01T18:50:28.012Z,101458.77
2023-03-01T18:52:40.618Z,101461.46
2023-03-01T18:54:53.107Z,101457.27
2023-03-01T18:57:05.717Z,101451.73
2023-03-01T18:59:18.283Z,101448.92
2023-03-01T19:01:34.666Z,101450.36
2023-03-01T19:03:49.236Z,101444.80
2023-03-01T19:06:02.266Z,101441.65
2023-03-01T19:08:14.866Z,101443.13
2023-03-01T19:10:28.233Z,101444.92
2023-03-01T19:12:40.868Z,101442.41
2023-03-01T19:14:53.962Z,101440.52
2023-03-01T19:17:06.605Z,101435.14
2023-03-01T19:19:19.103Z,101438.47
2023-03-01T19:21:32.955Z,101439.05
2023-03-01T19:23:45.986Z,101438.59
2023-03-01T19:26:03.008Z,101439.20
2023-03-01T19:28:15.716Z,101437.96
2023-03-01T19:30:28.403Z,101437.40
2023-03-01T19:32:40.930Z,101440.27
2023-03-01T19:34:53.464Z,101436.66
2023-03-01T19:37:06.150Z,101435.61
2023-03-01T19:39:18.885Z,101436.71
2023-03-01T19:41:31.751Z,101435.77
2023-03-01T19:43:46.259Z,101431.39
2023-03-01T19:45:59.051Z,101430.75
2023-03-01T19:48:12.211Z,101435.34
2023-03-01T19:50:24.937Z,101435.84
2023-03-01T19:52:37.528Z,101440.09
2023-03-01T19:54:51.925Z,101442.04
2023-03-01T19:57:06.451Z,101442.45
2023-03-01T19:59:24.475Z,101442.61
2023-03-01T20:01:37.721Z,101448.71
2023-03-01T20:03:50.441Z,101446.06
2023-03-01T20:06:14.865Z,101445.15
2023-03-01T20:08:30.281Z,101450.79
2023-03-01T20:10:43.485Z,101453.88
2023-03-01T20:12:56.346Z,101458.57
2023-03-01T20:15:09.810Z,101456.77
2023-03-01T20:17:23.275Z,101454.45
2023-03-01T20:19:36.035Z,101454.35
2023-03-01T20:21:48.702Z,101455.38
2023-03-01T20:24:02.035Z,101457.55
2023-03-01T20:26:19.135Z,101452.20
2023-03-01T20:28:32.228Z,101450.95
2023-03-01T20:30:45.723Z,101445.98
2023-03-01T20:32:58.342Z,101447.45
2023-03-01T20:35:11.969Z,101444.71
2023-03-01T20:37:24.644Z,101447.06
2023-03-01T20:39:37.298Z,101442.56
2023-03-01T20:41:49.862Z,101441.33
2023-03-01T20:44:04.406Z,101437.55
2023-03-01T20:46:17.021Z,101436.84
2023-03-01T20:48:29.632Z,101434.25
2023-03-01T20:50:42.345Z,101432.03
2023-03-01T20:52:54.952Z,101435.23
2023-03-01T20:55:08.347Z,101433.35
2023-03-01T20:57:20.982Z,101436.35
2023-03-01T20:59:34.943Z,101439.25
2023-03-01T21:01:47.860Z,101440.83
2023-03-01T21:04:00.710Z,101439.20
2023-03-01T21:06:13.781Z,101443.19
2023-03-01T21:08:26.437Z,101438.80
2023-03-01T21:10:38.972Z,101436.78
2023-03-01T21:12:51.494Z,101438.96
2023-03-01T21:15:04.901Z,101438.85
2023-03-01T21:17:17.581Z,101441.67
2023-03-01T21:19:30.282Z,101444.77
2023-03-01T21:21:42.857Z,101446.22
2023-03-01T21:23:55.560Z,101445.15
2023-03-01T21:26:09.408Z,101448.98
2023-03-01T21:28:22.982Z,101443.38
2023-03-01T21:30:35.650Z,101441.96
2023-03-01T21:32:48.244Z,101443.98
2023-03-01T21:35:00.858Z,101446.16
2023-03-01T21:37:13.649Z,101443.71
2023-03-01T21:39:28.897Z,101438.88
2023-03-01T21:41:41.680Z,101437.05
2023-03-01T21:44:00.525Z,101431.73
2023-03-01T21:46:17.333Z,101432.98
2023-03-01T21:48:30.213Z,101430.24
2023-03-01T21:50:42.818Z,101428.35
2023-03-01T21:52:55.348Z,101433.79
2023-03-01T21:55:09.067Z,101431.56
2023-03-01T21:57:21.748Z,101424.86
2023-03-01T21:59:34.280Z,101424.85
2023-03-01T22:01:47.579Z,101424.63
2023-03-01T22:04:01.156Z,101425.09
2023-03-01T22:06:26.281Z,101426.48
2023-03-01T22:08:38.835Z,101426.89
2023-03-01T22:10:52.107Z,101424.65
2023-03-01T22:13:04.708Z,101425.98
2023-03-01T22:15:17.312Z,101425.83
2023-03-01T22:17:29.886Z,101426.42
2023-03-01T22:19:42.421Z,101425.23
2023-03-01T22:21:54.961Z,101422.82
2023-03-01T22:24:08.405Z,101420.23
2023-03-01T22:26:27.603Z,101420.71
2023-03-01T22:28:40.262Z,101417.56
2023-03-01T22:30:52.985Z,101410.22
2023-03-01T22:33:05.632Z,101408.83
2023-03-01T22:35:18.394Z,101403.84
2023-03-01T22:37:31.047Z,101403.27
2023-03-01T22:39:43.783Z,101401.72
2023-03-01T22:41:56.400Z,101398.61
2023-03-01T22:44:09.049Z,101398.38
2023-03-01T22:46:22.011Z,101398.23
2023-03-01T22:48:34.658Z,101401.08
2023-03-01T22:50:48.661Z,101404.63
2023-03-01T22:53:01.303Z,101406.37
2023-03-01T22:55:13.968Z,101412.77
2023-03-01T22:57:26.522Z,101412.61
2023-03-01T22:59:39.181Z,101410.98
2023-03-01T23:01:53.306Z,101411.81
2023-03-01T23:04:06.368Z,101408.31
2023-03-01T23:06:20.972Z,101409.40
2023-03-01T23:08:33.683Z,101409.07
2023-03-01T23:10:46.275Z,101413.69
2023-03-01T23:12:58.871Z,101413.30
2023-03-01T23:15:12.131Z,101410.40
2023-03-01T23:17:25.040Z,101407.01
2023-03-01T23:19:37.656Z,101406.95
2023-03-01T23:21:50.582Z,101402.96
2023-03-01T23:24:03.493Z,101408.70
2023-03-01T23:26:17.376Z,101412.23
2023-03-01T23:28:30.107Z,101411.31
2023-03-01T23:30:45.141Z,101415.73
2023-03-01T23:33:00.276Z,101416.13
2023-03-01T23:35:12.834Z,101415.63
2023-03-01T23:37:30.016Z,101419.48
2023-03-01T23:39:42.655Z,101417.02
2023-03-01T23:41:55.989Z,101415.40
2023-03-01T23:44:12.477Z,101417.41
2023-03-01T23:46:28.211Z,101414.55
2023-03-01T23:48:42.411Z,101415.89
2023-03-01T23:50:55.071Z,101417.64
2023-03-01T23:53:14.350Z,101418.39
2023-03-01T23:55:27.884Z,101419.05
2023-03-01T23:57:40.770Z,101422.33
2023-03-01T23:59:53.332Z,101422.14
